OCN1GN LEIB-EDDF
Flight info
| Callsign | OCN1GN |
|---|---|
| Flight time | 2h 14m |
| Altitude | 36000 |
| Route | KABRE DCT ELTAN N853 LUMAS DCT UNANA DCT STP DCT RAPED DCT PIGOS DCT EKSID DCT NOSTA DCT NOPMU DCT ABESI DCT LADOL T163 EMPAX EMPAX5B |
| Aircraft | A320/M-SDE3FGHIRWY/LB1 |
Departure
| Time | 2026-04-14 06:28 |
|---|---|
| Airport | Ibiza Airport (LEIB) |
Arrival
| Time | 2026-04-14 08:42 |
|---|---|
| Airport | Frankfurt Main Airport (EDDF) |
| Time | Latitude | Longitude | Altitude | Speed | Heading |
|---|---|---|---|---|---|
| 2026-04-14 05:31 | 38.87673 | 1.37192 | 51 ft | 0 kts | 18° |
| 2026-04-14 06:21 | 38.87674 | 1.37194 | 51 ft | 1 kts | 33° |
| 2026-04-14 06:21 | 38.87668 | 1.37204 | 50 ft | 4 kts | 132° |
| 2026-04-14 06:22 | 38.87606 | 1.37248 | 47 ft | 14 kts | 154° |
| 2026-04-14 06:22 | 38.87519 | 1.37298 | 44 ft | 15 kts | 164° |
| 2026-04-14 06:22 | 38.87440 | 1.37249 | 39 ft | 13 kts | 244° |
| 2026-04-14 06:22 | 38.87403 | 1.37148 | 39 ft | 12 kts | 244° |
| 2026-04-14 06:23 | 38.87367 | 1.37056 | 39 ft | 12 kts | 242° |
| 2026-04-14 06:23 | 38.87321 | 1.36945 | 38 ft | 16 kts | 242° |
| 2026-04-14 06:23 | 38.87266 | 1.36815 | 35 ft | 17 kts | 241° |
| 2026-04-14 06:23 | 38.87204 | 1.36671 | 35 ft | 19 kts | 241° |
| 2026-04-14 06:24 | 38.87140 | 1.36516 | 34 ft | 20 kts | 242° |
| 2026-04-14 06:24 | 38.87071 | 1.36348 | 31 ft | 20 kts | 243° |
| 2026-04-14 06:24 | 38.87025 | 1.36234 | 31 ft | 5 kts | 238° |
| 2026-04-14 06:24 | 38.86998 | 1.36214 | 30 ft | 2 kts | 227° |
| 2026-04-14 06:25 | 38.86991 | 1.36178 | 30 ft | 12 kts | 254° |
| 2026-04-14 06:25 | 38.86940 | 1.36033 | 28 ft | 20 kts | 243° |
| 2026-04-14 06:25 | 38.86874 | 1.35868 | 28 ft | 18 kts | 242° |
| 2026-04-14 06:25 | 38.86803 | 1.35830 | 25 ft | 8 kts | 151° |
| 2026-04-14 06:26 | 38.86791 | 1.35839 | 24 ft | 0 kts | 150° |
| 2026-04-14 06:26 | 38.86783 | 1.35844 | 24 ft | 7 kts | 150° |
| 2026-04-14 06:26 | 38.86722 | 1.35899 | 28 ft | 10 kts | 107° |
| 2026-04-14 06:27 | 38.86739 | 1.35978 | 28 ft | 9 kts | 73° |
| 2026-04-14 06:27 | 38.86762 | 1.36044 | 27 ft | 12 kts | 62° |
| 2026-04-14 06:27 | 38.86911 | 1.36407 | 27 ft | 82 kts | 62° |
| 2026-04-14 06:27 | 38.87277 | 1.37291 | 31 ft | 140 kts | 62° |
| 2026-04-14 06:28 | 38.87773 | 1.38542 | 325 ft | 160 kts | 64° |
| 2026-04-14 06:28 | 38.88239 | 1.39819 | 1055 ft | 158 kts | 64° |
| 2026-04-14 06:28 | 38.88543 | 1.41222 | 1580 ft | 172 kts | 73° |
| 2026-04-14 06:28 | 38.88829 | 1.42813 | 1909 ft | 194 kts | 73° |
| 2026-04-14 06:29 | 38.89148 | 1.44602 | 2208 ft | 217 kts | 73° |
| 2026-04-14 06:29 | 38.89490 | 1.46525 | 2899 ft | 223 kts | 73° |
| 2026-04-14 06:29 | 38.89837 | 1.48481 | 3689 ft | 226 kts | 73° |
| 2026-04-14 06:29 | 38.90188 | 1.50455 | 4489 ft | 228 kts | 74° |
| 2026-04-14 06:30 | 38.90542 | 1.52450 | 5291 ft | 230 kts | 74° |
| 2026-04-14 06:30 | 38.90803 | 1.54492 | 6015 ft | 236 kts | 88° |
| 2026-04-14 06:30 | 38.90650 | 1.56692 | 6409 ft | 260 kts | 95° |
| 2026-04-14 06:30 | 38.90421 | 1.59094 | 6831 ft | 279 kts | 96° |
| 2026-04-14 06:31 | 38.90181 | 1.61569 | 7553 ft | 286 kts | 96° |
| 2026-04-14 06:31 | 38.89931 | 1.64146 | 8412 ft | 289 kts | 95° |
| 2026-04-14 06:31 | 38.89496 | 1.66679 | 9251 ft | 294 kts | 108° |
| 2026-04-14 06:31 | 38.88677 | 1.69061 | 10077 ft | 297 kts | 114° |
| 2026-04-14 06:32 | 38.87779 | 1.71510 | 10551 ft | 313 kts | 114° |
| 2026-04-14 06:32 | 38.86824 | 1.74134 | 10797 ft | 335 kts | 113° |
| 2026-04-14 06:32 | 38.85826 | 1.76896 | 11337 ft | 345 kts | 113° |
| 2026-04-14 06:32 | 38.84808 | 1.79706 | 12018 ft | 350 kts | 112° |
| 2026-04-14 06:33 | 38.83775 | 1.82554 | 12719 ft | 355 kts | 112° |
| 2026-04-14 06:33 | 38.82730 | 1.85435 | 13413 ft | 359 kts | 111° |
| 2026-04-14 06:33 | 38.81784 | 1.88407 | 14057 ft | 360 kts | 102° |
| 2026-04-14 06:34 | 38.81407 | 1.94741 | 15251 ft | 359 kts | 79° |
| 2026-04-14 06:34 | 38.82018 | 1.97831 | 15875 ft | 358 kts | 66° |
| 2026-04-14 06:34 | 38.82997 | 2.00763 | 16530 ft | 358 kts | 63° |
| 2026-04-14 06:34 | 38.83995 | 2.03700 | 17199 ft | 360 kts | 62° |
| 2026-04-14 06:35 | 38.84991 | 2.06655 | 17826 ft | 362 kts | 62° |
| 2026-04-14 06:35 | 38.85985 | 2.09628 | 18041 ft | 362 kts | 62° |
| 2026-04-14 06:35 | 38.86973 | 2.12593 | 18086 ft | 361 kts | 62° |
| 2026-04-14 06:35 | 38.87957 | 2.15549 | 18078 ft | 360 kts | 62° |
| 2026-04-14 06:36 | 38.88939 | 2.18499 | 18080 ft | 359 kts | 62° |
| 2026-04-14 06:36 | 38.89920 | 2.21447 | 18084 ft | 359 kts | 62° |
| 2026-04-14 06:36 | 38.90900 | 2.24394 | 18083 ft | 359 kts | 62° |
| 2026-04-14 06:36 | 38.91868 | 2.27303 | 18081 ft | 359 kts | 62° |
| 2026-04-14 06:37 | 38.92849 | 2.30251 | 18085 ft | 360 kts | 64° |
| 2026-04-14 06:37 | 38.93847 | 2.33243 | 18156 ft | 369 kts | 64° |
| 2026-04-14 06:37 | 38.94862 | 2.36288 | 18689 ft | 372 kts | 64° |
| 2026-04-14 06:37 | 38.95880 | 2.39354 | 19246 ft | 374 kts | 64° |
| 2026-04-14 06:38 | 38.96901 | 2.42441 | 19810 ft | 376 kts | 63° |
| 2026-04-14 06:38 | 38.97923 | 2.45536 | 20355 ft | 377 kts | 63° |
| 2026-04-14 06:38 | 38.98950 | 2.48649 | 20900 ft | 379 kts | 63° |
| 2026-04-14 06:38 | 38.99981 | 2.51771 | 21430 ft | 380 kts | 63° |
| 2026-04-14 06:39 | 39.01019 | 2.54909 | 21971 ft | 382 kts | 62° |
| 2026-04-14 06:39 | 39.02061 | 2.58055 | 22475 ft | 384 kts | 62° |
| 2026-04-14 06:39 | 39.03107 | 2.61223 | 22997 ft | 385 kts | 62° |
| 2026-04-14 06:39 | 39.04152 | 2.64400 | 23508 ft | 387 kts | 62° |
| 2026-04-14 06:40 | 39.05200 | 2.67594 | 23949 ft | 389 kts | 62° |
| 2026-04-14 06:40 | 39.06259 | 2.70822 | 24220 ft | 395 kts | 63° |
| 2026-04-14 06:40 | 39.07332 | 2.74091 | 24539 ft | 398 kts | 63° |
| 2026-04-14 06:40 | 39.08410 | 2.77384 | 24918 ft | 401 kts | 63° |
| 2026-04-14 06:41 | 39.09492 | 2.80702 | 25296 ft | 403 kts | 63° |
| 2026-04-14 06:41 | 39.10575 | 2.84033 | 25681 ft | 404 kts | 63° |
| 2026-04-14 06:41 | 39.11662 | 2.87380 | 26053 ft | 406 kts | 63° |
| 2026-04-14 06:41 | 39.12752 | 2.90740 | 26435 ft | 408 kts | 63° |
| 2026-04-14 06:42 | 39.13850 | 2.94116 | 26795 ft | 409 kts | 63° |
| 2026-04-14 06:42 | 39.14982 | 2.97476 | 27178 ft | 410 kts | 60° |
| 2026-04-14 06:42 | 39.16223 | 3.00788 | 27544 ft | 410 kts | 59° |
| 2026-04-14 06:42 | 39.17535 | 3.04052 | 27889 ft | 411 kts | 57° |
| 2026-04-14 06:43 | 39.18883 | 3.07315 | 28233 ft | 415 kts | 58° |
| 2026-04-14 06:43 | 39.20251 | 3.10618 | 28436 ft | 420 kts | 59° |
| 2026-04-14 06:43 | 39.21620 | 3.13955 | 28737 ft | 423 kts | 59° |
| 2026-04-14 06:43 | 39.22980 | 3.17327 | 29057 ft | 425 kts | 59° |
| 2026-04-14 06:44 | 39.24327 | 3.20731 | 29392 ft | 427 kts | 59° |
| 2026-04-14 06:44 | 39.25670 | 3.24159 | 29717 ft | 429 kts | 59° |
| 2026-04-14 06:44 | 39.27014 | 3.27595 | 30035 ft | 430 kts | 59° |
| 2026-04-14 06:44 | 39.28365 | 3.31049 | 30309 ft | 432 kts | 59° |
| 2026-04-14 06:45 | 39.29721 | 3.34515 | 30546 ft | 433 kts | 59° |
| 2026-04-14 06:45 | 39.31085 | 3.37991 | 30798 ft | 435 kts | 59° |
| 2026-04-14 06:45 | 39.32452 | 3.41475 | 31056 ft | 436 kts | 59° |
| 2026-04-14 06:45 | 39.33824 | 3.44980 | 31322 ft | 437 kts | 59° |
| 2026-04-14 06:46 | 39.36554 | 3.51970 | 32012 ft | 435 kts | 59° |
| 2026-04-14 06:46 | 39.37916 | 3.55456 | 32341 ft | 434 kts | 59° |
| 2026-04-14 06:46 | 39.39276 | 3.58933 | 32683 ft | 433 kts | 59° |
| 2026-04-14 06:47 | 39.40634 | 3.62409 | 33019 ft | 433 kts | 59° |
| 2026-04-14 06:47 | 39.41986 | 3.65880 | 33348 ft | 432 kts | 59° |
| 2026-04-14 06:47 | 39.43334 | 3.69348 | 33695 ft | 431 kts | 59° |
| 2026-04-14 06:47 | 39.44678 | 3.72817 | 34022 ft | 431 kts | 59° |
| 2026-04-14 06:48 | 39.46020 | 3.76281 | 34299 ft | 430 kts | 59° |
| 2026-04-14 06:48 | 39.47361 | 3.79744 | 34547 ft | 430 kts | 59° |
| 2026-04-14 06:48 | 39.48701 | 3.83209 | 34794 ft | 431 kts | 59° |
| 2026-04-14 06:48 | 39.50042 | 3.86677 | 35016 ft | 431 kts | 59° |
| 2026-04-14 06:49 | 39.51386 | 3.90150 | 35232 ft | 432 kts | 59° |
| 2026-04-14 06:49 | 39.52729 | 3.93631 | 35436 ft | 432 kts | 59° |
| 2026-04-14 06:49 | 39.54072 | 3.97114 | 35649 ft | 433 kts | 59° |
| 2026-04-14 06:49 | 39.55413 | 4.00604 | 35854 ft | 433 kts | 60° |
| 2026-04-14 06:50 | 39.56757 | 4.04101 | 36009 ft | 434 kts | 60° |
| 2026-04-14 06:50 | 39.59652 | 4.10873 | 36050 ft | 425 kts | 48° |
| 2026-04-14 06:50 | 39.61655 | 4.13660 | 36041 ft | 420 kts | 37° |
| 2026-04-14 06:51 | 39.64011 | 4.15857 | 36041 ft | 416 kts | 27° |
| 2026-04-14 06:51 | 39.69417 | 4.18315 | 36033 ft | 412 kts | 8° |
| 2026-04-14 06:52 | 39.75056 | 4.19423 | 36032 ft | 413 kts | 8° |
| 2026-04-14 06:52 | 39.80803 | 4.20544 | 36027 ft | 416 kts | 8° |
| 2026-04-14 06:53 | 39.86495 | 4.21652 | 36015 ft | 417 kts | 8° |
| 2026-04-14 06:53 | 39.92219 | 4.22918 | 36015 ft | 418 kts | 9° |
| 2026-04-14 06:54 | 39.97929 | 4.24309 | 36028 ft | 417 kts | 9° |
| 2026-04-14 06:54 | 40.03631 | 4.25685 | 36046 ft | 416 kts | 9° |
| 2026-04-14 06:55 | 40.09323 | 4.27030 | 36049 ft | 415 kts | 9° |
| 2026-04-14 06:55 | 40.15002 | 4.28357 | 36045 ft | 415 kts | 9° |
| 2026-04-14 06:56 | 40.20675 | 4.29690 | 36046 ft | 414 kts | 9° |
| 2026-04-14 06:56 | 40.26337 | 4.31034 | 36049 ft | 413 kts | 9° |
| 2026-04-14 06:57 | 40.31990 | 4.32375 | 36036 ft | 413 kts | 9° |
| 2026-04-14 06:57 | 40.37635 | 4.33716 | 36034 ft | 412 kts | 9° |
| 2026-04-14 06:58 | 40.43275 | 4.35053 | 36027 ft | 412 kts | 9° |
| 2026-04-14 06:58 | 40.48911 | 4.36397 | 36029 ft | 412 kts | 9° |
| 2026-04-14 06:59 | 40.54549 | 4.37743 | 36036 ft | 412 kts | 9° |
| 2026-04-14 06:59 | 40.60184 | 4.39091 | 36035 ft | 411 kts | 9° |
| 2026-04-14 07:00 | 40.65819 | 4.40437 | 36034 ft | 411 kts | 9° |
| 2026-04-14 07:00 | 40.71445 | 4.41785 | 36027 ft | 411 kts | 9° |
| 2026-04-14 07:01 | 40.77077 | 4.43131 | 36018 ft | 411 kts | 9° |
| 2026-04-14 07:01 | 40.82705 | 4.44481 | 36032 ft | 411 kts | 9° |
| 2026-04-14 07:02 | 40.88332 | 4.45835 | 36024 ft | 411 kts | 9° |
| 2026-04-14 07:02 | 40.93959 | 4.47198 | 36019 ft | 411 kts | 9° |
| 2026-04-14 07:03 | 40.99588 | 4.48574 | 36017 ft | 411 kts | 9° |
| 2026-04-14 07:03 | 41.04266 | 4.49706 | 36004 ft | 411 kts | 9° |
| 2026-04-14 07:04 | 41.09893 | 4.51081 | 36015 ft | 411 kts | 9° |
| 2026-04-14 07:04 | 41.16432 | 4.52682 | 36012 ft | 411 kts | 9° |
| 2026-04-14 07:05 | 41.21148 | 4.53825 | 36014 ft | 411 kts | 9° |
| 2026-04-14 07:05 | 41.26775 | 4.55193 | 36002 ft | 411 kts | 9° |
| 2026-04-14 07:06 | 41.32395 | 4.56561 | 36000 ft | 411 kts | 9° |
| 2026-04-14 07:06 | 41.37985 | 4.57932 | 35989 ft | 412 kts | 10° |
| 2026-04-14 07:07 | 41.43670 | 4.59328 | 35999 ft | 417 kts | 10° |
| 2026-04-14 07:07 | 41.49390 | 4.60745 | 36003 ft | 417 kts | 10° |
| 2026-04-14 07:08 | 41.55115 | 4.62160 | 35998 ft | 419 kts | 10° |
| 2026-04-14 07:08 | 41.60843 | 4.63576 | 35993 ft | 419 kts | 10° |
| 2026-04-14 07:09 | 41.66575 | 4.64992 | 35997 ft | 419 kts | 10° |
| 2026-04-14 07:09 | 41.72178 | 4.67041 | 36002 ft | 419 kts | 24° |
| 2026-04-14 07:10 | 41.76967 | 4.71451 | 35993 ft | 422 kts | 43° |
| 2026-04-14 07:10 | 41.81142 | 4.76991 | 35984 ft | 422 kts | 43° |
| 2026-04-14 07:11 | 41.85329 | 4.82508 | 35981 ft | 422 kts | 43° |
| 2026-04-14 07:11 | 41.89523 | 4.88036 | 35962 ft | 422 kts | 43° |
| 2026-04-14 07:12 | 41.93705 | 4.93578 | 35960 ft | 423 kts | 42° |
| 2026-04-14 07:12 | 41.97887 | 4.99138 | 35950 ft | 423 kts | 43° |
| 2026-04-14 07:13 | 42.02069 | 5.04717 | 35936 ft | 424 kts | 43° |
| 2026-04-14 07:13 | 42.06265 | 5.10320 | 35936 ft | 425 kts | 43° |
| 2026-04-14 07:14 | 42.10462 | 5.15931 | 35939 ft | 425 kts | 43° |
| 2026-04-14 07:14 | 42.14657 | 5.21558 | 35939 ft | 425 kts | 43° |
| 2026-04-14 07:15 | 42.18823 | 5.27154 | 35933 ft | 426 kts | 43° |
| 2026-04-14 07:15 | 42.23013 | 5.32791 | 35944 ft | 425 kts | 43° |
| 2026-04-14 07:16 | 42.27207 | 5.38437 | 35925 ft | 426 kts | 43° |
| 2026-04-14 07:16 | 42.31404 | 5.44106 | 35915 ft | 427 kts | 43° |
| 2026-04-14 07:17 | 42.35606 | 5.49798 | 35899 ft | 428 kts | 43° |
| 2026-04-14 07:17 | 42.39809 | 5.55500 | 35894 ft | 428 kts | 43° |
| 2026-04-14 07:18 | 42.44014 | 5.61204 | 35889 ft | 428 kts | 43° |
| 2026-04-14 07:18 | 42.48218 | 5.66930 | 35887 ft | 428 kts | 43° |
| 2026-04-14 07:19 | 42.52416 | 5.72666 | 35893 ft | 429 kts | 43° |
| 2026-04-14 07:19 | 42.56624 | 5.78410 | 35886 ft | 430 kts | 43° |
| 2026-04-14 07:20 | 42.60835 | 5.84175 | 35886 ft | 431 kts | 43° |
| 2026-04-14 07:20 | 42.65047 | 5.89959 | 35886 ft | 431 kts | 43° |
| 2026-04-14 07:21 | 42.69262 | 5.95758 | 35879 ft | 431 kts | 44° |
| 2026-04-14 07:21 | 42.73468 | 6.01573 | 35881 ft | 431 kts | 44° |
| 2026-04-14 07:22 | 42.77680 | 6.07390 | 35883 ft | 431 kts | 44° |
| 2026-04-14 07:22 | 42.81893 | 6.13207 | 35867 ft | 432 kts | 44° |
| 2026-04-14 07:23 | 42.86171 | 6.18952 | 35862 ft | 431 kts | 39° |
| 2026-04-14 07:23 | 42.90746 | 6.24180 | 35864 ft | 433 kts | 39° |
| 2026-04-14 07:24 | 42.95362 | 6.29472 | 35866 ft | 434 kts | 39° |
| 2026-04-14 07:24 | 42.99983 | 6.34778 | 35868 ft | 434 kts | 39° |
| 2026-04-14 07:25 | 43.04604 | 6.40103 | 35871 ft | 435 kts | 39° |
| 2026-04-14 07:25 | 43.09226 | 6.45436 | 35870 ft | 435 kts | 39° |
| 2026-04-14 07:26 | 43.13855 | 6.50775 | 35873 ft | 435 kts | 39° |
| 2026-04-14 07:26 | 43.18474 | 6.56128 | 35875 ft | 435 kts | 39° |
| 2026-04-14 07:27 | 43.22832 | 6.61872 | 35866 ft | 436 kts | 51° |
| 2026-04-14 07:27 | 43.26403 | 6.68610 | 35863 ft | 437 kts | 53° |
| 2026-04-14 07:28 | 43.29976 | 6.75358 | 35870 ft | 437 kts | 53° |
| 2026-04-14 07:28 | 43.33550 | 6.82116 | 35871 ft | 437 kts | 53° |
| 2026-04-14 07:29 | 43.37108 | 6.88891 | 35878 ft | 437 kts | 53° |
| 2026-04-14 07:29 | 43.40664 | 6.95673 | 35881 ft | 437 kts | 53° |
| 2026-04-14 07:30 | 43.44221 | 7.02461 | 35879 ft | 437 kts | 53° |
| 2026-04-14 07:30 | 43.47773 | 7.09257 | 35878 ft | 437 kts | 53° |
| 2026-04-14 07:31 | 43.51325 | 7.16060 | 35875 ft | 438 kts | 53° |
| 2026-04-14 07:31 | 43.54873 | 7.22879 | 35870 ft | 438 kts | 53° |
| 2026-04-14 07:32 | 43.58402 | 7.29714 | 35865 ft | 438 kts | 53° |
| 2026-04-14 07:32 | 43.61937 | 7.36557 | 35882 ft | 438 kts | 53° |
| 2026-04-14 07:33 | 43.65473 | 7.43401 | 35875 ft | 438 kts | 53° |
| 2026-04-14 07:33 | 43.69011 | 7.50254 | 35850 ft | 438 kts | 53° |
| 2026-04-14 07:34 | 43.76064 | 7.63993 | 35864 ft | 438 kts | 53° |
| 2026-04-14 07:35 | 43.79579 | 7.70879 | 35863 ft | 438 kts | 53° |
| 2026-04-14 07:35 | 43.83511 | 7.77182 | 35874 ft | 435 kts | 38° |
| 2026-04-14 07:36 | 43.88323 | 7.82349 | 35891 ft | 435 kts | 36° |
| 2026-04-14 07:36 | 43.93079 | 7.87443 | 35897 ft | 435 kts | 34° |
| 2026-04-14 07:37 | 43.98392 | 7.91318 | 35911 ft | 430 kts | 17° |
| 2026-04-14 07:37 | 44.04028 | 7.94107 | 35919 ft | 430 kts | 18° |
| 2026-04-14 07:38 | 44.09678 | 7.96936 | 35920 ft | 429 kts | 18° |
| 2026-04-14 07:38 | 44.15255 | 7.99739 | 35918 ft | 429 kts | 18° |
| 2026-04-14 07:39 | 44.20910 | 8.02571 | 35925 ft | 429 kts | 18° |
| 2026-04-14 07:39 | 44.26529 | 8.05387 | 35926 ft | 429 kts | 18° |
| 2026-04-14 07:40 | 44.32108 | 8.08208 | 35933 ft | 429 kts | 18° |
| 2026-04-14 07:40 | 44.37730 | 8.11055 | 35932 ft | 430 kts | 19° |
| 2026-04-14 07:41 | 44.43369 | 8.13918 | 35937 ft | 432 kts | 19° |
| 2026-04-14 07:41 | 44.49020 | 8.16786 | 35938 ft | 432 kts | 19° |
| 2026-04-14 07:42 | 44.54679 | 8.19658 | 35927 ft | 433 kts | 19° |
| 2026-04-14 07:42 | 44.60347 | 8.22536 | 35933 ft | 433 kts | 19° |
| 2026-04-14 07:43 | 44.66014 | 8.25425 | 35937 ft | 433 kts | 19° |
| 2026-04-14 07:43 | 44.71682 | 8.28331 | 35937 ft | 434 kts | 19° |
| 2026-04-14 07:44 | 44.77348 | 8.31245 | 35937 ft | 434 kts | 19° |
| 2026-04-14 07:44 | 44.83018 | 8.34166 | 35938 ft | 434 kts | 19° |
| 2026-04-14 07:45 | 44.88689 | 8.37082 | 35941 ft | 434 kts | 19° |
| 2026-04-14 07:45 | 44.94363 | 8.40010 | 35942 ft | 434 kts | 19° |
| 2026-04-14 07:46 | 44.99990 | 8.42922 | 35943 ft | 434 kts | 19° |
| 2026-04-14 07:46 | 45.05659 | 8.45858 | 35940 ft | 434 kts | 19° |
| 2026-04-14 07:47 | 45.11368 | 8.48814 | 35940 ft | 434 kts | 19° |
| 2026-04-14 07:47 | 45.17000 | 8.51741 | 35940 ft | 434 kts | 19° |
| 2026-04-14 07:48 | 45.22669 | 8.54699 | 35941 ft | 434 kts | 19° |
| 2026-04-14 07:48 | 45.28337 | 8.57662 | 35942 ft | 434 kts | 19° |
| 2026-04-14 07:49 | 45.33998 | 8.60639 | 35937 ft | 434 kts | 19° |
| 2026-04-14 07:49 | 45.39660 | 8.63610 | 35937 ft | 434 kts | 19° |
| 2026-04-14 07:50 | 45.45330 | 8.66582 | 35936 ft | 434 kts | 19° |
| 2026-04-14 07:50 | 45.50999 | 8.69566 | 35933 ft | 435 kts | 19° |
| 2026-04-14 07:51 | 45.56671 | 8.72564 | 35937 ft | 435 kts | 19° |
| 2026-04-14 07:51 | 45.62347 | 8.75564 | 35939 ft | 435 kts | 19° |
| 2026-04-14 07:52 | 45.67063 | 8.78066 | 35941 ft | 435 kts | 19° |
| 2026-04-14 07:52 | 45.72738 | 8.81084 | 35946 ft | 435 kts | 19° |
| 2026-04-14 07:53 | 45.78411 | 8.84112 | 35941 ft | 435 kts | 19° |
| 2026-04-14 07:53 | 45.84089 | 8.87144 | 35945 ft | 435 kts | 19° |
| 2026-04-14 07:54 | 45.89768 | 8.90177 | 35944 ft | 436 kts | 19° |
| 2026-04-14 07:54 | 45.95453 | 8.93224 | 35943 ft | 436 kts | 19° |
| 2026-04-14 07:55 | 46.01136 | 8.96277 | 35945 ft | 436 kts | 19° |
| 2026-04-14 07:55 | 46.06819 | 8.99335 | 35942 ft | 436 kts | 19° |
| 2026-04-14 07:56 | 46.12499 | 9.02397 | 35965 ft | 436 kts | 19° |
| 2026-04-14 07:56 | 46.18402 | 9.04128 | 35963 ft | 433 kts | 1° |
| 2026-04-14 07:57 | 46.24419 | 9.03923 | 35943 ft | 433 kts | 357° |
| 2026-04-14 07:57 | 46.30438 | 9.03665 | 35952 ft | 433 kts | 357° |
| 2026-04-14 07:58 | 46.36457 | 9.03405 | 35959 ft | 433 kts | 357° |
| 2026-04-14 07:58 | 46.42400 | 9.03146 | 36002 ft | 433 kts | 357° |
| 2026-04-14 07:59 | 46.48419 | 9.02879 | 36035 ft | 433 kts | 357° |
| 2026-04-14 07:59 | 46.54434 | 9.02623 | 36034 ft | 432 kts | 357° |
| 2026-04-14 08:00 | 46.60410 | 9.02369 | 36036 ft | 432 kts | 357° |
| 2026-04-14 08:00 | 46.66427 | 9.02103 | 36062 ft | 433 kts | 357° |
| 2026-04-14 08:01 | 46.72435 | 9.01838 | 36083 ft | 432 kts | 357° |
| 2026-04-14 08:01 | 46.78449 | 9.01570 | 36094 ft | 432 kts | 357° |
| 2026-04-14 08:02 | 46.84500 | 9.01292 | 36095 ft | 432 kts | 357° |
| 2026-04-14 08:02 | 46.90483 | 9.01028 | 36112 ft | 433 kts | 357° |
| 2026-04-14 08:03 | 46.96368 | 9.00778 | 36122 ft | 433 kts | 357° |
| 2026-04-14 08:03 | 47.02397 | 9.00519 | 36127 ft | 434 kts | 357° |
| 2026-04-14 08:04 | 47.08418 | 9.00257 | 36138 ft | 434 kts | 357° |
| 2026-04-14 08:04 | 47.14447 | 8.99981 | 36143 ft | 433 kts | 356° |
| 2026-04-14 08:05 | 47.20473 | 8.99702 | 36139 ft | 433 kts | 357° |
| 2026-04-14 08:05 | 47.26484 | 8.99435 | 36142 ft | 433 kts | 357° |
| 2026-04-14 08:06 | 47.32505 | 8.99171 | 36136 ft | 433 kts | 356° |
| 2026-04-14 08:06 | 47.38526 | 8.98899 | 36136 ft | 433 kts | 356° |
| 2026-04-14 08:07 | 47.44470 | 8.98628 | 36137 ft | 433 kts | 356° |
| 2026-04-14 08:07 | 47.50497 | 8.98356 | 36139 ft | 433 kts | 356° |
| 2026-04-14 08:08 | 47.56472 | 8.98093 | 36135 ft | 434 kts | 356° |
| 2026-04-14 08:08 | 47.62504 | 8.97819 | 36136 ft | 434 kts | 356° |
| 2026-04-14 08:09 | 47.68536 | 8.97547 | 36143 ft | 434 kts | 356° |
| 2026-04-14 08:09 | 47.74571 | 8.97271 | 36142 ft | 434 kts | 356° |
| 2026-04-14 08:10 | 47.80603 | 8.96990 | 36134 ft | 434 kts | 356° |
| 2026-04-14 08:10 | 47.86635 | 8.96716 | 36135 ft | 434 kts | 356° |
| 2026-04-14 08:11 | 47.92659 | 8.96444 | 36136 ft | 434 kts | 356° |
| 2026-04-14 08:11 | 47.98692 | 8.96171 | 36141 ft | 434 kts | 356° |
| 2026-04-14 08:12 | 48.04732 | 8.95897 | 36139 ft | 434 kts | 356° |
| 2026-04-14 08:12 | 48.10766 | 8.95607 | 36130 ft | 434 kts | 357° |
| 2026-04-14 08:13 | 48.16808 | 8.95400 | 36118 ft | 435 kts | 2° |
| 2026-04-14 08:13 | 48.22840 | 8.96264 | 36083 ft | 436 kts | 5° |
| 2026-04-14 08:13 | 48.25873 | 8.96730 | 35106 ft | 440 kts | 5° |
| 2026-04-14 08:14 | 48.28949 | 8.97195 | 33710 ft | 451 kts | 4° |
| 2026-04-14 08:14 | 48.32013 | 8.97656 | 33327 ft | 442 kts | 4° |
| 2026-04-14 08:14 | 48.35026 | 8.98116 | 33032 ft | 432 kts | 4° |
| 2026-04-14 08:14 | 48.38003 | 8.98572 | 32467 ft | 428 kts | 4° |
| 2026-04-14 08:15 | 48.40954 | 8.99025 | 31924 ft | 425 kts | 4° |
| 2026-04-14 08:15 | 48.43883 | 8.99475 | 31402 ft | 422 kts | 4° |
| 2026-04-14 08:15 | 48.46792 | 8.99921 | 30876 ft | 419 kts | 4° |
| 2026-04-14 08:15 | 48.49684 | 9.00362 | 30352 ft | 417 kts | 4° |
| 2026-04-14 08:16 | 48.52562 | 9.00798 | 29787 ft | 414 kts | 4° |
| 2026-04-14 08:16 | 48.55411 | 9.01229 | 29285 ft | 410 kts | 4° |
| 2026-04-14 08:16 | 48.58233 | 9.01661 | 28787 ft | 405 kts | 4° |
| 2026-04-14 08:16 | 48.60999 | 9.02086 | 28305 ft | 401 kts | 4° |
| 2026-04-14 08:17 | 48.63755 | 9.02529 | 27832 ft | 396 kts | 5° |
| 2026-04-14 08:17 | 48.66473 | 9.03082 | 27382 ft | 392 kts | 7° |
| 2026-04-14 08:17 | 48.69148 | 9.03723 | 26925 ft | 388 kts | 8° |
| 2026-04-14 08:17 | 48.71794 | 9.04403 | 26483 ft | 383 kts | 8° |
| 2026-04-14 08:18 | 48.74411 | 9.05081 | 26048 ft | 379 kts | 8° |
| 2026-04-14 08:18 | 48.77003 | 9.05740 | 25602 ft | 376 kts | 8° |
| 2026-04-14 08:18 | 48.79573 | 9.06371 | 25158 ft | 373 kts | 8° |
| 2026-04-14 08:18 | 48.82130 | 9.06983 | 24703 ft | 371 kts | 8° |
| 2026-04-14 08:19 | 48.84675 | 9.07589 | 24248 ft | 369 kts | 8° |
| 2026-04-14 08:19 | 48.87210 | 9.08194 | 23778 ft | 368 kts | 8° |
| 2026-04-14 08:19 | 48.89743 | 9.08751 | 23256 ft | 367 kts | 6° |
| 2026-04-14 08:19 | 48.92266 | 9.09173 | 22785 ft | 363 kts | 4° |
| 2026-04-14 08:20 | 48.94777 | 9.09510 | 22316 ft | 361 kts | 4° |
| 2026-04-14 08:20 | 48.97250 | 9.09811 | 21853 ft | 359 kts | 3° |
| 2026-04-14 08:20 | 48.99734 | 9.10113 | 21398 ft | 357 kts | 3° |
| 2026-04-14 08:20 | 49.02203 | 9.10433 | 20941 ft | 355 kts | 4° |
| 2026-04-14 08:21 | 49.04659 | 9.10768 | 20489 ft | 354 kts | 4° |
| 2026-04-14 08:21 | 49.07111 | 9.11115 | 20034 ft | 353 kts | 4° |
| 2026-04-14 08:21 | 49.09553 | 9.11466 | 19582 ft | 352 kts | 4° |
| 2026-04-14 08:21 | 49.11991 | 9.11817 | 19131 ft | 352 kts | 4° |
| 2026-04-14 08:22 | 49.14422 | 9.12167 | 18688 ft | 351 kts | 4° |
| 2026-04-14 08:22 | 49.16855 | 9.12513 | 18221 ft | 351 kts | 4° |
| 2026-04-14 08:22 | 49.19275 | 9.12860 | 17759 ft | 349 kts | 4° |
| 2026-04-14 08:22 | 49.21685 | 9.13208 | 17320 ft | 347 kts | 4° |
| 2026-04-14 08:23 | 49.24083 | 9.13554 | 16882 ft | 345 kts | 4° |
| 2026-04-14 08:23 | 49.26471 | 9.13901 | 16457 ft | 343 kts | 4° |
| 2026-04-14 08:23 | 49.28837 | 9.14339 | 16030 ft | 343 kts | 11° |
| 2026-04-14 08:23 | 49.31166 | 9.15150 | 15552 ft | 343 kts | 12° |
| 2026-04-14 08:24 | 49.33496 | 9.15976 | 15079 ft | 344 kts | 12° |
| 2026-04-14 08:24 | 49.35830 | 9.16806 | 14610 ft | 344 kts | 12° |
| 2026-04-14 08:24 | 49.38164 | 9.17634 | 14122 ft | 345 kts | 12° |
| 2026-04-14 08:24 | 49.40505 | 9.18463 | 13633 ft | 345 kts | 12° |
| 2026-04-14 08:25 | 49.42839 | 9.19292 | 13146 ft | 344 kts | 12° |
| 2026-04-14 08:25 | 49.45161 | 9.20118 | 12664 ft | 342 kts | 12° |
| 2026-04-14 08:25 | 49.47472 | 9.20940 | 12245 ft | 339 kts | 12° |
| 2026-04-14 08:25 | 49.49766 | 9.21759 | 11745 ft | 338 kts | 12° |
| 2026-04-14 08:26 | 49.52038 | 9.22570 | 11351 ft | 334 kts | 12° |
| 2026-04-14 08:26 | 49.54300 | 9.23381 | 10816 ft | 334 kts | 12° |
| 2026-04-14 08:26 | 49.56565 | 9.24199 | 10337 ft | 333 kts | 12° |
| 2026-04-14 08:26 | 49.58817 | 9.25010 | 9859 ft | 331 kts | 12° |
| 2026-04-14 08:27 | 49.61036 | 9.25603 | 9457 ft | 316 kts | 0° |
| 2026-04-14 08:27 | 49.63188 | 9.25514 | 9320 ft | 303 kts | 356° |
| 2026-04-14 08:27 | 49.65255 | 9.25401 | 9188 ft | 292 kts | 356° |
| 2026-04-14 08:27 | 49.67259 | 9.25295 | 9056 ft | 286 kts | 357° |
| 2026-04-14 08:28 | 49.69243 | 9.25186 | 8926 ft | 284 kts | 357° |
| 2026-04-14 08:28 | 49.71190 | 9.25075 | 8795 ft | 283 kts | 356° |
| 2026-04-14 08:28 | 49.73157 | 9.24960 | 8659 ft | 282 kts | 356° |
| 2026-04-14 08:28 | 49.75144 | 9.24842 | 8536 ft | 282 kts | 356° |
| 2026-04-14 08:29 | 49.77073 | 9.24729 | 8406 ft | 281 kts | 357° |
| 2026-04-14 08:29 | 49.79023 | 9.24614 | 8285 ft | 280 kts | 356° |
| 2026-04-14 08:29 | 49.80993 | 9.24495 | 8170 ft | 279 kts | 356° |
| 2026-04-14 08:29 | 49.82907 | 9.24379 | 8031 ft | 279 kts | 357° |
| 2026-04-14 08:30 | 49.84839 | 9.24262 | 7906 ft | 278 kts | 356° |
| 2026-04-14 08:30 | 49.86771 | 9.24148 | 7782 ft | 277 kts | 356° |
| 2026-04-14 08:30 | 49.88695 | 9.24032 | 7652 ft | 276 kts | 356° |
| 2026-04-14 08:30 | 49.90616 | 9.23916 | 7528 ft | 276 kts | 357° |
| 2026-04-14 08:31 | 49.92533 | 9.23798 | 7404 ft | 275 kts | 356° |
| 2026-04-14 08:31 | 49.96340 | 9.23558 | 7151 ft | 273 kts | 356° |
| 2026-04-14 08:31 | 49.98237 | 9.23441 | 7028 ft | 272 kts | 357° |
| 2026-04-14 08:32 | 50.00127 | 9.23327 | 6908 ft | 271 kts | 357° |
| 2026-04-14 08:32 | 50.02010 | 9.23213 | 6787 ft | 270 kts | 356° |
| 2026-04-14 08:32 | 50.03885 | 9.23100 | 6655 ft | 269 kts | 357° |
| 2026-04-14 08:32 | 50.05758 | 9.22987 | 6537 ft | 269 kts | 357° |
| 2026-04-14 08:33 | 50.07623 | 9.22872 | 6407 ft | 267 kts | 356° |
| 2026-04-14 08:33 | 50.09476 | 9.22760 | 6276 ft | 265 kts | 356° |
| 2026-04-14 08:33 | 50.11314 | 9.22650 | 6137 ft | 264 kts | 357° |
| 2026-04-14 08:33 | 50.13140 | 9.22429 | 6013 ft | 262 kts | 347° |
| 2026-04-14 08:34 | 50.14810 | 9.21335 | 5878 ft | 262 kts | 325° |
| 2026-04-14 08:34 | 50.16097 | 9.19370 | 5755 ft | 260 kts | 305° |
| 2026-04-14 08:34 | 50.16839 | 9.16807 | 5626 ft | 262 kts | 285° |
| 2026-04-14 08:34 | 50.16930 | 9.13966 | 5499 ft | 266 kts | 263° |
| 2026-04-14 08:35 | 50.16398 | 9.11195 | 5371 ft | 268 kts | 252° |
| 2026-04-14 08:35 | 50.15743 | 9.08468 | 5212 ft | 269 kts | 252° |
| 2026-04-14 08:35 | 50.15120 | 9.05853 | 5097 ft | 269 kts | 252° |
| 2026-04-14 08:35 | 50.14493 | 9.03166 | 4989 ft | 257 kts | 252° |
| 2026-04-14 08:36 | 50.13902 | 9.00632 | 4995 ft | 240 kts | 253° |
| 2026-04-14 08:36 | 50.13347 | 8.98257 | 4998 ft | 227 kts | 252° |
| 2026-04-14 08:36 | 50.12808 | 8.95947 | 4998 ft | 227 kts | 252° |
| 2026-04-14 08:36 | 50.12451 | 8.94423 | 5000 ft | 226 kts | 252° |
| 2026-04-14 08:37 | 50.11911 | 8.92117 | 4894 ft | 226 kts | 252° |
| 2026-04-14 08:37 | 50.11376 | 8.89836 | 4634 ft | 224 kts | 253° |
| 2026-04-14 08:37 | 50.10841 | 8.87564 | 4331 ft | 223 kts | 253° |
| 2026-04-14 08:37 | 50.10307 | 8.85290 | 4018 ft | 223 kts | 253° |
| 2026-04-14 08:38 | 50.09773 | 8.83022 | 3716 ft | 223 kts | 253° |
| 2026-04-14 08:38 | 50.09081 | 8.80091 | 3341 ft | 209 kts | 253° |
| 2026-04-14 08:38 | 50.08751 | 8.78694 | 3133 ft | 198 kts | 253° |
| 2026-04-14 08:38 | 50.08292 | 8.76752 | 2872 ft | 183 kts | 253° |
| 2026-04-14 08:39 | 50.07868 | 8.74956 | 2623 ft | 171 kts | 253° |
| 2026-04-14 08:39 | 50.07478 | 8.73309 | 2401 ft | 154 kts | 254° |
| 2026-04-14 08:39 | 50.07119 | 8.71791 | 2189 ft | 146 kts | 253° |
| 2026-04-14 08:39 | 50.06775 | 8.70331 | 1997 ft | 143 kts | 253° |
| 2026-04-14 08:40 | 50.06434 | 8.68890 | 1802 ft | 141 kts | 253° |
| 2026-04-14 08:40 | 50.06093 | 8.67457 | 1630 ft | 141 kts | 253° |
| 2026-04-14 08:40 | 50.05762 | 8.66046 | 1436 ft | 140 kts | 252° |
| 2026-04-14 08:40 | 50.05420 | 8.64629 | 1276 ft | 139 kts | 254° |
| 2026-04-14 08:41 | 50.05083 | 8.63206 | 1051 ft | 138 kts | 253° |
| 2026-04-14 08:41 | 50.04752 | 8.61817 | 854 ft | 136 kts | 253° |
| 2026-04-14 08:41 | 50.04433 | 8.60454 | 673 ft | 136 kts | 253° |
| 2026-04-14 08:41 | 50.04103 | 8.59077 | 480 ft | 136 kts | 252° |
| 2026-04-14 08:42 | 50.03781 | 8.57725 | 364 ft | 122 kts | 252° |
| 2026-04-14 08:42 | 50.03547 | 8.56731 | 356 ft | 73 kts | 250° |
| 2026-04-14 08:42 | 50.03444 | 8.56265 | 354 ft | 28 kts | 258° |
| 2026-04-14 08:42 | 50.03442 | 8.56021 | 347 ft | 16 kts | 277° |
| 2026-04-14 08:43 | 50.03454 | 8.55895 | 347 ft | 13 kts | 278° |
| 2026-04-14 08:43 | 50.03469 | 8.55747 | 344 ft | 15 kts | 279° |
| 2026-04-14 08:43 | 50.03486 | 8.55584 | 349 ft | 15 kts | 278° |
| 2026-04-14 08:43 | 50.03476 | 8.55412 | 354 ft | 18 kts | 249° |
| 2026-04-14 08:44 | 50.03428 | 8.55213 | 351 ft | 21 kts | 250° |
| 2026-04-14 08:44 | 50.03375 | 8.54977 | 349 ft | 25 kts | 251° |
| 2026-04-14 08:44 | 50.03315 | 8.54730 | 335 ft | 23 kts | 248° |
| 2026-04-14 08:44 | 50.03279 | 8.54544 | 336 ft | 17 kts | 275° |
| 2026-04-14 08:45 | 50.03370 | 8.54442 | 339 ft | 17 kts | 339° |
| 2026-04-14 08:45 | 50.03483 | 8.54377 | 345 ft | 18 kts | 340° |
| 2026-04-14 08:45 | 50.03608 | 8.54309 | 349 ft | 19 kts | 345° |
| 2026-04-14 08:45 | 50.03691 | 8.54433 | 344 ft | 19 kts | 69° |
| 2026-04-14 08:46 | 50.03736 | 8.54632 | 355 ft | 20 kts | 70° |
| 2026-04-14 08:46 | 50.03784 | 8.54842 | 353 ft | 21 kts | 70° |
| 2026-04-14 08:46 | 50.03837 | 8.55060 | 348 ft | 22 kts | 70° |
| 2026-04-14 08:46 | 50.03888 | 8.55282 | 354 ft | 22 kts | 69° |
| 2026-04-14 08:47 | 50.03943 | 8.55510 | 357 ft | 23 kts | 69° |
| 2026-04-14 08:47 | 50.04002 | 8.55756 | 355 ft | 25 kts | 70° |
| 2026-04-14 08:47 | 50.04064 | 8.56009 | 353 ft | 25 kts | 69° |
| 2026-04-14 08:47 | 50.04125 | 8.56267 | 355 ft | 25 kts | 70° |
| 2026-04-14 08:48 | 50.04185 | 8.56520 | 361 ft | 23 kts | 69° |
| 2026-04-14 08:48 | 50.04226 | 8.56693 | 364 ft | 15 kts | 70° |
| 2026-04-14 08:48 | 50.04289 | 8.56806 | 365 ft | 14 kts | 18° |
| 2026-04-14 08:48 | 50.04395 | 8.56841 | 363 ft | 18 kts | 9° |
| 2026-04-14 08:49 | 50.04532 | 8.56880 | 359 ft | 21 kts | 13° |
| 2026-04-14 08:49 | 50.04666 | 8.56941 | 360 ft | 19 kts | 22° |
| 2026-04-14 08:49 | 50.04783 | 8.57026 | 363 ft | 17 kts | 25° |
| 2026-04-14 08:49 | 50.04863 | 8.57083 | 358 ft | 7 kts | 24° |
| 2026-04-14 08:50 | 50.04889 | 8.57116 | 365 ft | 6 kts | 54° |
| 2026-04-14 08:50 | 50.04881 | 8.57159 | 359 ft | 0 kts | 162° |